sensor_id;sensor_type;location;lat;lon;timestamp;temperature;humidity
25450;DHT22;13371;52.080;5.624;2022-10-18T00:01:05;18.20;98.90
25450;DHT22;13371;52.080;5.624;2022-10-18T00:03:32;18.50;98.80
25450;DHT22;13371;52.080;5.624;2022-10-18T00:05:58;18.60;98.60
25450;DHT22;13371;52.080;5.624;2022-10-18T00:08:23;18.70;98.40
25450;DHT22;13371;52.080;5.624;2022-10-18T00:10:49;18.70;98.30
25450;DHT22;13371;52.080;5.624;2022-10-18T00:13:15;18.70;98.70
25450;DHT22;13371;52.080;5.624;2022-10-18T00:15:52;18.70;98.20
25450;DHT22;13371;52.080;5.624;2022-10-18T00:18:19;18.80;98.20
25450;DHT22;13371;52.080;5.624;2022-10-18T00:20:44;18.70;98.20
25450;DHT22;13371;52.080;5.624;2022-10-18T00:23:10;18.10;98.80
25450;DHT22;13371;52.080;5.624;2022-10-18T00:25:36;18.00;99.30
25450;DHT22;13371;52.080;5.624;2022-10-18T00:28:01;18.10;99.20
25450;DHT22;13371;52.080;5.624;2022-10-18T00:30:27;18.30;99.10
25450;DHT22;13371;52.080;5.624;2022-10-18T00:32:52;18.10;99.20
25450;DHT22;13371;52.080;5.624;2022-10-18T00:35:18;18.30;99.00
25450;DHT22;13371;52.080;5.624;2022-10-18T00:37:43;18.00;99.40
25450;DHT22;13371;52.080;5.624;2022-10-18T00:40:09;18.10;99.60
25450;DHT22;13371;52.080;5.624;2022-10-18T00:42:37;18.30;99.10
25450;DHT22;13371;52.080;5.624;2022-10-18T00:45:29;18.50;98.80
25450;DHT22;13371;52.080;5.624;2022-10-18T00:47:58;18.40;98.70
25450;DHT22;13371;52.080;5.624;2022-10-18T00:50:26;18.10;99.00
25450;DHT22;13371;52.080;5.624;2022-10-18T00:52:55;18.00;99.90
25450;DHT22;13371;52.080;5.624;2022-10-18T00:55:23;18.10;99.90
25450;DHT22;13371;52.080;5.624;2022-10-18T00:57:50;18.20;99.50
25450;DHT22;13371;52.080;5.624;2022-10-18T01:00:16;18.40;99.50
25450;DHT22;13371;52.080;5.624;2022-10-18T01:02:44;18.30;98.70
25450;DHT22;13371;52.080;5.624;2022-10-18T01:05:12;18.30;99.20
25450;DHT22;13371;52.080;5.624;2022-10-18T01:15:56;18.40;99.00
25450;DHT22;13371;52.080;5.624;2022-10-18T01:18:50;18.50;98.80
25450;DHT22;13371;52.080;5.624;2022-10-18T01:21:27;18.50;98.80
25450;DHT22;13371;52.080;5.624;2022-10-18T01:32:30;18.50;98.70
25450;DHT22;13371;52.080;5.624;2022-10-18T01:34:58;18.50;98.50
25450;DHT22;13371;52.080;5.624;2022-10-18T01:37:27;18.20;98.80
25450;DHT22;13371;52.080;5.624;2022-10-18T01:39:56;18.30;99.10
25450;DHT22;13371;52.080;5.624;2022-10-18T01:42:22;18.40;98.90
25450;DHT22;13371;52.080;5.624;2022-10-18T01:44:51;18.50;98.60
25450;DHT22;13371;52.080;5.624;2022-10-18T01:47:17;18.50;98.60
25450;DHT22;13371;52.080;5.624;2022-10-18T01:49:43;18.50;98.50
25450;DHT22;13371;52.080;5.624;2022-10-18T01:52:12;18.50;98.50
25450;DHT22;13371;52.080;5.624;2022-10-18T01:54:41;17.90;99.00
25450;DHT22;13371;52.080;5.624;2022-10-18T01:57:21;18.10;99.00
25450;DHT22;13371;52.080;5.624;2022-10-18T02:00:05;18.30;98.80
25450;DHT22;13371;52.080;5.624;2022-10-18T02:02:56;18.30;98.60
25450;DHT22;13371;52.080;5.624;2022-10-18T02:08:37;18.50;98.40
25450;DHT22;13371;52.080;5.624;2022-10-18T02:11:10;18.50;98.30
25450;DHT22;13371;52.080;5.624;2022-10-18T02:13:53;18.40;98.40
25450;DHT22;13371;52.080;5.624;2022-10-18T02:16:27;18.40;98.40
25450;DHT22;13371;52.080;5.624;2022-10-18T02:19:01;18.30;98.30
25450;DHT22;13371;52.080;5.624;2022-10-18T02:21:30;18.30;98.50
25450;DHT22;13371;52.080;5.624;2022-10-18T02:23:57;18.40;98.30
25450;DHT22;13371;52.080;5.624;2022-10-18T02:26:24;18.40;98.20
25450;DHT22;13371;52.080;5.624;2022-10-18T02:28:50;18.50;98.20
25450;DHT22;13371;52.080;5.624;2022-10-18T02:34:03;18.40;98.10
25450;DHT22;13371;52.080;5.624;2022-10-18T02:39:05;18.30;98.30
25450;DHT22;13371;52.080;5.624;2022-10-18T02:41:32;18.10;98.50
25450;DHT22;13371;52.080;5.624;2022-10-18T02:43:58;18.30;98.30
25450;DHT22;13371;52.080;5.624;2022-10-18T02:46:24;18.30;98.30
25450;DHT22;13371;52.080;5.624;2022-10-18T02:48:49;18.10;98.40
25450;DHT22;13371;52.080;5.624;2022-10-18T02:51:15;18.10;98.40
25450;DHT22;13371;52.080;5.624;2022-10-18T02:53:41;18.30;98.30
25450;DHT22;13371;52.080;5.624;2022-10-18T02:56:06;18.30;98.20
25450;DHT22;13371;52.080;5.624;2022-10-18T02:58:32;18.30;98.10
25450;DHT22;13371;52.080;5.624;2022-10-18T03:00:57;18.20;98.00
25450;DHT22;13371;52.080;5.624;2022-10-18T03:03:23;18.20;98.10
25450;DHT22;13371;52.080;5.624;2022-10-18T03:05:50;18.10;98.20
25450;DHT22;13371;52.080;5.624;2022-10-18T03:08:15;18.20;98.20
25450;DHT22;13371;52.080;5.624;2022-10-18T03:10:45;18.20;98.20
25450;DHT22;13371;52.080;5.624;2022-10-18T03:13:11;18.20;98.10
25450;DHT22;13371;52.080;5.624;2022-10-18T03:15:36;18.20;98.20
25450;DHT22;13371;52.080;5.624;2022-10-18T03:18:02;18.10;98.10
25450;DHT22;13371;52.080;5.624;2022-10-18T03:20:28;18.20;98.20
25450;DHT22;13371;52.080;5.624;2022-10-18T03:22:53;18.20;98.10
25450;DHT22;13371;52.080;5.624;2022-10-18T03:25:19;18.10;98.10
25450;DHT22;13371;52.080;5.624;2022-10-18T03:27:45;18.00;98.00
25450;DHT22;13371;52.080;5.624;2022-10-18T03:30:10;18.10;98.20
25450;DHT22;13371;52.080;5.624;2022-10-18T03:32:37;18.10;98.00
25450;DHT22;13371;52.080;5.624;2022-10-18T03:35:06;18.10;98.00
25450;DHT22;13371;52.080;5.624;2022-10-18T03:37:32;18.00;98.20
25450;DHT22;13371;52.080;5.624;2022-10-18T03:39:58;18.10;98.00
25450;DHT22;13371;52.080;5.624;2022-10-18T03:42:23;18.10;98.00
25450;DHT22;13371;52.080;5.624;2022-10-18T03:44:49;18.10;97.90
25450;DHT22;13371;52.080;5.624;2022-10-18T03:47:15;18.10;97.90
25450;DHT22;13371;52.080;5.624;2022-10-18T03:49:40;18.00;97.90
25450;DHT22;13371;52.080;5.624;2022-10-18T03:52:06;17.80;98.00
25450;DHT22;13371;52.080;5.624;2022-10-18T03:54:31;17.80;98.10
25450;DHT22;13371;52.080;5.624;2022-10-18T03:56:57;17.80;98.00
25450;DHT22;13371;52.080;5.624;2022-10-18T03:59:22;17.70;98.20
25450;DHT22;13371;52.080;5.624;2022-10-18T04:01:48;17.80;98.10
25450;DHT22;13371;52.080;5.624;2022-10-18T04:04:14;17.60;98.10
25450;DHT22;13371;52.080;5.624;2022-10-18T04:06:39;17.80;97.90
25450;DHT22;13371;52.080;5.624;2022-10-18T04:09:05;17.80;97.90
25450;DHT22;13371;52.080;5.624;2022-10-18T04:11:31;17.80;97.90
25450;DHT22;13371;52.080;5.624;2022-10-18T04:13:56;17.80;97.90
25450;DHT22;13371;52.080;5.624;2022-10-18T04:16:22;17.70;97.90
25450;DHT22;13371;52.080;5.624;2022-10-18T04:18:47;17.80;97.90
25450;DHT22;13371;52.080;5.624;2022-10-18T04:21:13;17.70;97.80
25450;DHT22;13371;52.080;5.624;2022-10-18T04:23:38;17.70;97.80
25450;DHT22;13371;52.080;5.624;2022-10-18T04:26:04;17.30;97.80
25450;DHT22;13371;52.080;5.624;2022-10-18T04:28:30;17.30;98.50
25450;DHT22;13371;52.080;5.624;2022-10-18T04:30:55;17.20;98.30
25450;DHT22;13371;52.080;5.624;2022-10-18T04:33:22;17.40;98.20
25450;DHT22;13371;52.080;5.624;2022-10-18T04:35:50;17.40;98.10
25450;DHT22;13371;52.080;5.624;2022-10-18T04:38:17;17.40;97.90
25450;DHT22;13371;52.080;5.624;2022-10-18T04:40:42;17.40;97.80
25450;DHT22;13371;52.080;5.624;2022-10-18T04:43:08;17.30;97.80
25450;DHT22;13371;52.080;5.624;2022-10-18T04:45:34;17.40;97.90
25450;DHT22;13371;52.080;5.624;2022-10-18T04:47:59;17.50;97.50
25450;DHT22;13371;52.080;5.624;2022-10-18T04:50:25;17.50;97.40
25450;DHT22;13371;52.080;5.624;2022-10-18T04:52:50;17.40;97.50
25450;DHT22;13371;52.080;5.624;2022-10-18T04:55:18;17.30;97.70
25450;DHT22;13371;52.080;5.624;2022-10-18T04:57:43;17.30;97.70
25450;DHT22;13371;52.080;5.624;2022-10-18T05:00:09;17.30;97.70
25450;DHT22;13371;52.080;5.624;2022-10-18T05:02:35;17.30;97.80
25450;DHT22;13371;52.080;5.624;2022-10-18T05:05:01;17.20;97.70
25450;DHT22;13371;52.080;5.624;2022-10-18T05:07:26;17.10;98.00
25450;DHT22;13371;52.080;5.624;2022-10-18T05:09:52;17.10;97.80
25450;DHT22;13371;52.080;5.624;2022-10-18T05:12:17;17.10;97.70
25450;DHT22;13371;52.080;5.624;2022-10-18T05:14:43;17.10;97.70
25450;DHT22;13371;52.080;5.624;2022-10-18T05:17:08;17.10;97.80
25450;DHT22;13371;52.080;5.624;2022-10-18T05:19:34;17.00;97.70
25450;DHT22;13371;52.080;5.624;2022-10-18T05:21:59;16.90;98.00
25450;DHT22;13371;52.080;5.624;2022-10-18T05:24:25;16.90;97.90
25450;DHT22;13371;52.080;5.624;2022-10-18T05:26:51;16.80;97.90
25450;DHT22;13371;52.080;5.624;2022-10-18T05:29:16;17.00;97.90
25450;DHT22;13371;52.080;5.624;2022-10-18T05:31:42;16.80;98.10
25450;DHT22;13371;52.080;5.624;2022-10-18T05:34:07;16.70;98.40
25450;DHT22;13371;52.080;5.624;2022-10-18T05:36:33;16.90;98.20
25450;DHT22;13371;52.080;5.624;2022-10-18T05:38:59;16.90;98.00
25450;DHT22;13371;52.080;5.624;2022-10-18T05:41:26;16.90;98.00
25450;DHT22;13371;52.080;5.624;2022-10-18T05:43:52;17.00;97.90
25450;DHT22;13371;52.080;5.624;2022-10-18T05:46:17;16.90;97.80
25450;DHT22;13371;52.080;5.624;2022-10-18T05:48:43;16.90;97.80
25450;DHT22;13371;52.080;5.624;2022-10-18T05:51:13;16.90;97.90
25450;DHT22;13371;52.080;5.624;2022-10-18T05:53:38;17.00;97.80
25450;DHT22;13371;52.080;5.624;2022-10-18T05:56:05;16.90;97.70
25450;DHT22;13371;52.080;5.624;2022-10-18T05:58:31;16.80;98.10
25450;DHT22;13371;52.080;5.624;2022-10-18T06:01:00;16.90;98.10
25450;DHT22;13371;52.080;5.624;2022-10-18T06:03:26;16.70;98.00
25450;DHT22;13371;52.080;5.624;2022-10-18T06:05:52;16.80;98.00
25450;DHT22;13371;52.080;5.624;2022-10-18T06:08:18;16.80;97.90
25450;DHT22;13371;52.080;5.624;2022-10-18T06:10:44;16.90;98.00
25450;DHT22;13371;52.080;5.624;2022-10-18T06:13:09;16.80;98.00
25450;DHT22;13371;52.080;5.624;2022-10-18T06:15:35;16.90;97.80
25450;DHT22;13371;52.080;5.624;2022-10-18T06:18:00;16.90;97.80
25450;DHT22;13371;52.080;5.624;2022-10-18T06:20:26;16.80;97.80
25450;DHT22;13371;52.080;5.624;2022-10-18T06:22:52;16.70;98.10
25450;DHT22;13371;52.080;5.624;2022-10-18T06:25:17;16.60;98.30
25450;DHT22;13371;52.080;5.624;2022-10-18T06:27:43;16.60;98.60
25450;DHT22;13371;52.080;5.624;2022-10-18T06:30:09;16.80;98.30
25450;DHT22;13371;52.080;5.624;2022-10-18T06:32:35;16.70;98.30
25450;DHT22;13371;52.080;5.624;2022-10-18T06:35:00;16.30;98.60
25450;DHT22;13371;52.080;5.624;2022-10-18T06:37:28;16.20;99.20
25450;DHT22;13371;52.080;5.624;2022-10-18T06:39:54;16.30;99.40
25450;DHT22;13371;52.080;5.624;2022-10-18T06:42:20;16.50;99.00
25450;DHT22;13371;52.080;5.624;2022-10-18T06:44:45;16.50;98.90
25450;DHT22;13371;52.080;5.624;2022-10-18T06:47:12;16.70;98.70
25450;DHT22;13371;52.080;5.624;2022-10-18T06:49:37;16.10;99.00
25450;DHT22;13371;52.080;5.624;2022-10-18T06:52:03;15.80;99.90
25450;DHT22;13371;52.080;5.624;2022-10-18T06:54:29;16.10;99.70
25450;DHT22;13371;52.080;5.624;2022-10-18T06:56:55;16.10;99.90
25450;DHT22;13371;52.080;5.624;2022-10-18T06:59:22;16.30;99.60
25450;DHT22;13371;52.080;5.624;2022-10-18T07:01:48;15.90;99.90
25450;DHT22;13371;52.080;5.624;2022-10-18T07:04:13;15.60;99.90
25450;DHT22;13371;52.080;5.624;2022-10-18T07:06:39;15.30;99.90
25450;DHT22;13371;52.080;5.624;2022-10-18T07:09:04;15.70;99.90
25450;DHT22;13371;52.080;5.624;2022-10-18T07:11:30;15.60;99.90
25450;DHT22;13371;52.080;5.624;2022-10-18T07:13:59;15.80;99.90
25450;DHT22;13371;52.080;5.624;2022-10-18T07:16:29;16.00;99.90
25450;DHT22;13371;52.080;5.624;2022-10-18T07:18:55;16.10;99.90
25450;DHT22;13371;52.080;5.624;2022-10-18T07:21:23;16.00;99.90
25450;DHT22;13371;52.080;5.624;2022-10-18T07:23:50;16.10;99.60
25450;DHT22;13371;52.080;5.624;2022-10-18T07:26:22;16.30;99.50
25450;DHT22;13371;52.080;5.624;2022-10-18T07:28:50;16.50;99.30
25450;DHT22;13371;52.080;5.624;2022-10-18T07:31:18;16.40;99.30
25450;DHT22;13371;52.080;5.624;2022-10-18T07:33:44;16.20;99.20
25450;DHT22;13371;52.080;5.624;2022-10-18T07:36:11;16.20;98.90
25450;DHT22;13371;52.080;5.624;2022-10-18T07:38:37;16.30;99.60
25450;DHT22;13371;52.080;5.624;2022-10-18T07:41:05;16.60;99.30
25450;DHT22;13371;52.080;5.624;2022-10-18T07:43:31;16.70;99.10
25450;DHT22;13371;52.080;5.624;2022-10-18T07:45:59;16.90;99.00
25450;DHT22;13371;52.080;5.624;2022-10-18T07:48:25;16.90;98.90
25450;DHT22;13371;52.080;5.624;2022-10-18T07:50:51;16.50;98.90
25450;DHT22;13371;52.080;5.624;2022-10-18T07:53:17;16.60;99.70
25450;DHT22;13371;52.080;5.624;2022-10-18T07:55:43;16.90;99.70
25450;DHT22;13371;52.080;5.624;2022-10-18T07:58:09;17.20;99.50
25450;DHT22;13371;52.080;5.624;2022-10-18T08:00:35;17.50;99.10
25450;DHT22;13371;52.080;5.624;2022-10-18T08:03:00;17.70;98.40
25450;DHT22;13371;52.080;5.624;2022-10-18T08:05:26;17.70;98.30
25450;DHT22;13371;52.080;5.624;2022-10-18T08:07:53;17.90;98.10
25450;DHT22;13371;52.080;5.624;2022-10-18T08:10:19;17.90;97.90
25450;DHT22;13371;52.080;5.624;2022-10-18T08:12:45;17.80;98.00
25450;DHT22;13371;52.080;5.624;2022-10-18T08:15:11;18.10;97.50
25450;DHT22;13371;52.080;5.624;2022-10-18T08:17:37;18.10;97.70
25450;DHT22;13371;52.080;5.624;2022-10-18T08:20:03;18.10;97.80
25450;DHT22;13371;52.080;5.624;2022-10-18T08:22:29;17.80;97.60
25450;DHT22;13371;52.080;5.624;2022-10-18T08:24:54;17.60;97.50
25450;DHT22;13371;52.080;5.624;2022-10-18T08:27:20;17.70;97.60
25450;DHT22;13371;52.080;5.624;2022-10-18T08:29:45;17.90;97.80
25450;DHT22;13371;52.080;5.624;2022-10-18T08:32:12;18.00;97.60
25450;DHT22;13371;52.080;5.624;2022-10-18T08:34:37;17.90;97.40
25450;DHT22;13371;52.080;5.624;2022-10-18T08:37:03;17.60;97.50
25450;DHT22;13371;52.080;5.624;2022-10-18T08:39:28;16.60;98.50
25450;DHT22;13371;52.080;5.624;2022-10-18T08:44:29;16.50;99.80
25450;DHT22;13371;52.080;5.624;2022-10-18T08:47:03;16.10;99.90
25450;DHT22;13371;52.080;5.624;2022-10-18T08:49:36;16.10;99.90
25450;DHT22;13371;52.080;5.624;2022-10-18T08:52:12;16.20;99.90
25450;DHT22;13371;52.080;5.624;2022-10-18T08:54:54;16.50;99.90
25450;DHT22;13371;52.080;5.624;2022-10-18T08:57:23;17.40;99.90
25450;DHT22;13371;52.080;5.624;2022-10-18T08:59:49;17.90;99.80
25450;DHT22;13371;52.080;5.624;2022-10-18T09:05:03;18.80;98.50
25450;DHT22;13371;52.080;5.624;2022-10-18T09:10:34;18.60;97.60
25450;DHT22;13371;52.080;5.624;2022-10-18T09:13:53;19.00;98.30
25450;DHT22;13371;52.080;5.624;2022-10-18T09:19:16;20.00;96.10
25450;DHT22;13371;52.080;5.624;2022-10-18T09:24:26;20.00;94.20
25450;DHT22;13371;52.080;5.624;2022-10-18T09:27:03;20.10;94.60
25450;DHT22;13371;52.080;5.624;2022-10-18T09:32:26;20.20;93.60
25450;DHT22;13371;52.080;5.624;2022-10-18T09:35:28;20.50;94.70
25450;DHT22;13371;52.080;5.624;2022-10-18T09:38:01;21.70;94.20
25450;DHT22;13371;52.080;5.624;2022-10-18T09:40:29;22.20;92.50
25450;DHT22;13371;52.080;5.624;2022-10-18T09:43:09;22.80;92.50
25450;DHT22;13371;52.080;5.624;2022-10-18T09:45:39;23.50;91.60
25450;DHT22;13371;52.080;5.624;2022-10-18T09:48:13;23.80;90.60
25450;DHT22;13371;52.080;5.624;2022-10-18T09:53:36;24.40;88.80
25450;DHT22;13371;52.080;5.624;2022-10-18T09:56:09;25.00;87.80
25450;DHT22;13371;52.080;5.624;2022-10-18T09:58:47;25.20;84.80
25450;DHT22;13371;52.080;5.624;2022-10-18T10:01:28;25.60;87.40
25450;DHT22;13371;52.080;5.624;2022-10-18T10:03:54;25.80;83.90
25450;DHT22;13371;52.080;5.624;2022-10-18T10:06:31;26.10;85.00
25450;DHT22;13371;52.080;5.624;2022-10-18T10:09:14;26.00;81.20
25450;DHT22;13371;52.080;5.624;2022-10-18T10:11:45;25.40;79.00
25450;DHT22;13371;52.080;5.624;2022-10-18T10:14:17;25.80;79.90
25450;DHT22;13371;52.080;5.624;2022-10-18T10:16:53;26.20;82.70
25450;DHT22;13371;52.080;5.624;2022-10-18T10:19:34;26.20;79.30
25450;DHT22;13371;52.080;5.624;2022-10-18T10:22:09;25.80;74.10
25450;DHT22;13371;52.080;5.624;2022-10-18T10:24:45;25.80;74.80
25450;DHT22;13371;52.080;5.624;2022-10-18T10:27:31;25.20;74.20
25450;DHT22;13371;52.080;5.624;2022-10-18T10:30:00;24.80;78.30
25450;DHT22;13371;52.080;5.624;2022-10-18T10:37:52;24.60;80.40
25450;DHT22;13371;52.080;5.624;2022-10-18T10:40:29;24.80;75.70
25450;DHT22;13371;52.080;5.624;2022-10-18T10:43:15;24.60;79.30
25450;DHT22;13371;52.080;5.624;2022-10-18T10:48:25;24.90;78.70
25450;DHT22;13371;52.080;5.624;2022-10-18T10:51:06;24.30;77.40
25450;DHT22;13371;52.080;5.624;2022-10-18T10:53:34;24.60;79.80
25450;DHT22;13371;52.080;5.624;2022-10-18T10:56:01;24.70;80.90
25450;DHT22;13371;52.080;5.624;2022-10-18T10:58:32;25.30;79.60
25450;DHT22;13371;52.080;5.624;2022-10-18T11:01:22;25.80;80.60
25450;DHT22;13371;52.080;5.624;2022-10-18T11:03:50;25.40;71.00
25450;DHT22;13371;52.080;5.624;2022-10-18T11:08:54;24.70;70.70
25450;DHT22;13371;52.080;5.624;2022-10-18T11:11:31;24.40;74.40
25450;DHT22;13371;52.080;5.624;2022-10-18T11:14:07;24.60;75.30
25450;DHT22;13371;52.080;5.624;2022-10-18T11:17:16;24.10;74.90
25450;DHT22;13371;52.080;5.624;2022-10-18T11:22:25;24.40;78.80
25450;DHT22;13371;52.080;5.624;2022-10-18T11:24:52;24.70;73.90
25450;DHT22;13371;52.080;5.624;2022-10-18T11:27:34;24.50;75.30
25450;DHT22;13371;52.080;5.624;2022-10-18T11:30:23;24.90;75.20
25450;DHT22;13371;52.080;5.624;2022-10-18T11:38:33;24.70;70.80
25450;DHT22;13371;52.080;5.624;2022-10-18T11:44:02;25.10;71.60
25450;DHT22;13371;52.080;5.624;2022-10-18T11:52:03;24.80;69.20
25450;DHT22;13371;52.080;5.624;2022-10-18T12:05:38;24.80;70.70
25450;DHT22;13371;52.080;5.624;2022-10-18T12:08:24;24.70;68.40
25450;DHT22;13371;52.080;5.624;2022-10-18T12:10:52;24.50;67.90
25450;DHT22;13371;52.080;5.624;2022-10-18T12:13:37;24.50;70.70
25450;DHT22;13371;52.080;5.624;2022-10-18T12:16:05;24.60;68.70
25450;DHT22;13371;52.080;5.624;2022-10-18T12:18:32;24.30;67.20
25450;DHT22;13371;52.080;5.624;2022-10-18T12:20:58;24.40;71.50
25450;DHT22;13371;52.080;5.624;2022-10-18T12:23:44;24.20;70.10
25450;DHT22;13371;52.080;5.624;2022-10-18T12:26:11;24.00;71.00
25450;DHT22;13371;52.080;5.624;2022-10-18T12:28:40;23.80;71.40
25450;DHT22;13371;52.080;5.624;2022-10-18T12:33:48;23.80;71.10
25450;DHT22;13371;52.080;5.624;2022-10-18T12:38:53;23.90;72.90
25450;DHT22;13371;52.080;5.624;2022-10-18T12:41:27;24.00;71.00
25450;DHT22;13371;52.080;5.624;2022-10-18T12:44:00;23.60;70.70
25450;DHT22;13371;52.080;5.624;2022-10-18T12:49:12;23.40;68.50
25450;DHT22;13371;52.080;5.624;2022-10-18T12:51:59;23.20;71.70
25450;DHT22;13371;52.080;5.624;2022-10-18T12:54:29;23.30;70.10
25450;DHT22;13371;52.080;5.624;2022-10-18T12:56:55;22.90;72.00
25450;DHT22;13371;52.080;5.624;2022-10-18T13:09:24;23.30;72.40
25450;DHT22;13371;52.080;5.624;2022-10-18T13:15:00;23.50;73.20
25450;DHT22;13371;52.080;5.624;2022-10-18T13:22:42;23.70;68.70
25450;DHT22;13371;52.080;5.624;2022-10-18T13:25:52;23.50;69.60
25450;DHT22;13371;52.080;5.624;2022-10-18T13:31:56;23.70;69.30
25450;DHT22;13371;52.080;5.624;2022-10-18T13:34:25;24.00;69.20
25450;DHT22;13371;52.080;5.624;2022-10-18T13:37:19;24.10;68.40
25450;DHT22;13371;52.080;5.624;2022-10-18T13:39:45;23.90;66.80
25450;DHT22;13371;52.080;5.624;2022-10-18T13:44:41;24.20;66.40
25450;DHT22;13371;52.080;5.624;2022-10-18T13:47:10;24.30;67.10
25450;DHT22;13371;52.080;5.624;2022-10-18T13:55:38;23.70;68.20
25450;DHT22;13371;52.080;5.624;2022-10-18T13:58:13;23.60;63.20
25450;DHT22;13371;52.080;5.624;2022-10-18T14:06:45;24.30;68.00
25450;DHT22;13371;52.080;5.624;2022-10-18T14:17:05;24.20;67.50
25450;DHT22;13371;52.080;5.624;2022-10-18T14:19:37;24.40;66.10
25450;DHT22;13371;52.080;5.624;2022-10-18T14:22:13;24.50;68.90
25450;DHT22;13371;52.080;5.624;2022-10-18T14:24:45;24.40;67.60
25450;DHT22;13371;52.080;5.624;2022-10-18T14:29:42;23.10;68.80
25450;DHT22;13371;52.080;5.624;2022-10-18T14:32:10;22.90;72.60
25450;DHT22;13371;52.080;5.624;2022-10-18T14:34:43;23.00;73.20
25450;DHT22;13371;52.080;5.624;2022-10-18T14:39:50;22.10;73.50
25450;DHT22;13371;52.080;5.624;2022-10-18T14:42:24;22.10;75.20
25450;DHT22;13371;52.080;5.624;2022-10-18T14:44:51;22.20;76.90
25450;DHT22;13371;52.080;5.624;2022-10-18T14:47:21;21.60;78.20
25450;DHT22;13371;52.080;5.624;2022-10-18T14:49:47;21.50;77.20
25450;DHT22;13371;52.080;5.624;2022-10-18T14:52:16;21.50;78.00
25450;DHT22;13371;52.080;5.624;2022-10-18T14:54:42;21.70;77.10
25450;DHT22;13371;52.080;5.624;2022-10-18T14:57:18;21.60;77.50
25450;DHT22;13371;52.080;5.624;2022-10-18T14:59:46;21.50;76.80
25450;DHT22;13371;52.080;5.624;2022-10-18T15:02:20;21.50;78.10
25450;DHT22;13371;52.080;5.624;2022-10-18T15:04:55;21.20;77.90
25450;DHT22;13371;52.080;5.624;2022-10-18T15:07:21;21.00;79.00
25450;DHT22;13371;52.080;5.624;2022-10-18T15:09:47;21.10;77.90
25450;DHT22;13371;52.080;5.624;2022-10-18T15:12:14;20.80;80.10
25450;DHT22;13371;52.080;5.624;2022-10-18T15:14:41;20.60;81.50
25450;DHT22;13371;52.080;5.624;2022-10-18T15:17:14;20.50;81.90
25450;DHT22;13371;52.080;5.624;2022-10-18T15:20:02;20.60;82.70
25450;DHT22;13371;52.080;5.624;2022-10-18T15:22:30;20.50;82.80
25450;DHT22;13371;52.080;5.624;2022-10-18T15:27:39;20.00;85.40
25450;DHT22;13371;52.080;5.624;2022-10-18T15:30:58;19.90;86.10
25450;DHT22;13371;52.080;5.624;2022-10-18T15:33:00;19.50;85.40
25450;DHT22;13371;52.080;5.624;2022-10-18T15:35:32;19.00;88.40
25450;DHT22;13371;52.080;5.624;2022-10-18T15:38:44;19.10;88.60
25450;DHT22;13371;52.080;5.624;2022-10-18T15:40:45;19.10;87.40
25450;DHT22;13371;52.080;5.624;2022-10-18T15:45:54;18.90;87.00
25450;DHT22;13371;52.080;5.624;2022-10-18T15:48:31;18.80;87.20
25450;DHT22;13371;52.080;5.624;2022-10-18T15:51:06;18.80;88.10
25450;DHT22;13371;52.080;5.624;2022-10-18T15:58:45;18.90;87.00
25450;DHT22;13371;52.080;5.624;2022-10-18T16:01:20;19.00;86.60
25450;DHT22;13371;52.080;5.624;2022-10-18T16:03:46;19.00;86.10
25450;DHT22;13371;52.080;5.624;2022-10-18T16:06:13;19.10;87.10
25450;DHT22;13371;52.080;5.624;2022-10-18T16:08:45;18.90;86.50
25450;DHT22;13371;52.080;5.624;2022-10-18T16:11:16;18.80;87.10
25450;DHT22;13371;52.080;5.624;2022-10-18T16:13:42;18.50;88.40
25450;DHT22;13371;52.080;5.624;2022-10-18T16:16:21;18.80;88.00
25450;DHT22;13371;52.080;5.624;2022-10-18T16:18:47;18.90;87.60
25450;DHT22;13371;52.080;5.624;2022-10-18T16:21:18;19.00;88.10
25450;DHT22;13371;52.080;5.624;2022-10-18T16:23:45;19.10;87.00
25450;DHT22;13371;52.080;5.624;2022-10-18T16:26:11;19.10;86.70
25450;DHT22;13371;52.080;5.624;2022-10-18T16:28:37;19.10;87.40
25450;DHT22;13371;52.080;5.624;2022-10-18T16:31:03;19.10;87.40
25450;DHT22;13371;52.080;5.624;2022-10-18T16:33:29;19.10;87.40
25450;DHT22;13371;52.080;5.624;2022-10-18T16:35:56;19.00;87.70
25450;DHT22;13371;52.080;5.624;2022-10-18T16:38:30;18.90;88.70
25450;DHT22;13371;52.080;5.624;2022-10-18T16:40:56;19.00;88.70
25450;DHT22;13371;52.080;5.624;2022-10-18T16:43:22;18.90;88.70
25450;DHT22;13371;52.080;5.624;2022-10-18T16:45:49;18.80;88.80
25450;DHT22;13371;52.080;5.624;2022-10-18T16:48:18;18.90;88.40
25450;DHT22;13371;52.080;5.624;2022-10-18T16:50:44;18.70;88.60
25450;DHT22;13371;52.080;5.624;2022-10-18T16:53:10;18.70;88.40
25450;DHT22;13371;52.080;5.624;2022-10-18T16:55:37;18.60;88.60
25450;DHT22;13371;52.080;5.624;2022-10-18T16:58:04;18.40;88.90
25450;DHT22;13371;52.080;5.624;2022-10-18T17:00:30;18.30;89.20
25450;DHT22;13371;52.080;5.624;2022-10-18T17:02:57;18.30;89.40
25450;DHT22;13371;52.080;5.624;2022-10-18T17:05:23;18.10;89.60
25450;DHT22;13371;52.080;5.624;2022-10-18T17:07:48;18.00;90.10
25450;DHT22;13371;52.080;5.624;2022-10-18T17:10:18;17.90;90.40
25450;DHT22;13371;52.080;5.624;2022-10-18T17:12:44;17.80;90.40
25450;DHT22;13371;52.080;5.624;2022-10-18T17:15:10;17.90;90.30
25450;DHT22;13371;52.080;5.624;2022-10-18T17:17:37;17.70;90.40
25450;DHT22;13371;52.080;5.624;2022-10-18T17:20:04;17.70;90.40
25450;DHT22;13371;52.080;5.624;2022-10-18T17:22:30;17.40;90.60
25450;DHT22;13371;52.080;5.624;2022-10-18T17:24:56;17.20;91.10
25450;DHT22;13371;52.080;5.624;2022-10-18T17:27:22;17.20;91.10
25450;DHT22;13371;52.080;5.624;2022-10-18T17:29:47;17.10;91.20
25450;DHT22;13371;52.080;5.624;2022-10-18T17:32:13;17.10;91.20
25450;DHT22;13371;52.080;5.624;2022-10-18T17:34:38;17.10;91.30
25450;DHT22;13371;52.080;5.624;2022-10-18T17:37:05;17.00;91.20
25450;DHT22;13371;52.080;5.624;2022-10-18T17:39:30;16.80;91.60
25450;DHT22;13371;52.080;5.624;2022-10-18T17:41:56;16.80;91.70
25450;DHT22;13371;52.080;5.624;2022-10-18T17:44:23;16.80;91.60
25450;DHT22;13371;52.080;5.624;2022-10-18T17:46:49;16.80;91.60
25450;DHT22;13371;52.080;5.624;2022-10-18T17:49:15;16.70;91.50
25450;DHT22;13371;52.080;5.624;2022-10-18T17:51:41;16.50;92.00
25450;DHT22;13371;52.080;5.624;2022-10-18T17:54:08;16.30;92.10
25450;DHT22;13371;52.080;5.624;2022-10-18T17:56:33;16.60;91.80
25450;DHT22;13371;52.080;5.624;2022-10-18T17:59:00;16.40;91.60
25450;DHT22;13371;52.080;5.624;2022-10-18T18:01:25;16.30;91.80
25450;DHT22;13371;52.080;5.624;2022-10-18T18:03:55;16.30;91.80
25450;DHT22;13371;52.080;5.624;2022-10-18T18:06:24;16.20;91.90
25450;DHT22;13371;52.080;5.624;2022-10-18T18:08:59;16.20;92.10
25450;DHT22;13371;52.080;5.624;2022-10-18T18:11:27;16.00;92.30
25450;DHT22;13371;52.080;5.624;2022-10-18T18:13:56;15.90;92.40